sensor_id;sensor_type;location;lat;lon;timestamp;P1;durP1;ratioP1;P2;durP2;ratioP2
48367;SDS011;34173;47.446;18.912;2023-04-03T00:01:08;11.05;;;7.15;;
48367;SDS011;34173;47.446;18.912;2023-04-03T00:03:36;10.35;;;6.55;;
48367;SDS011;34173;47.446;18.912;2023-04-03T00:06:05;11.23;;;6.87;;
48367;SDS011;34173;47.446;18.912;2023-04-03T00:08:38;9.10;;;6.05;;
48367;SDS011;34173;47.446;18.912;2023-04-03T00:11:06;10.07;;;6.50;;
48367;SDS011;34173;47.446;18.912;2023-04-03T00:13:34;9.70;;;6.62;;
48367;SDS011;34173;47.446;18.912;2023-04-03T00:16:02;9.55;;;5.87;;
48367;SDS011;34173;47.446;18.912;2023-04-03T00:18:30;8.53;;;5.70;;
48367;SDS011;34173;47.446;18.912;2023-04-03T00:20:57;9.45;;;6.43;;
48367;SDS011;34173;47.446;18.912;2023-04-03T00:23:25;9.18;;;6.10;;
48367;SDS011;34173;47.446;18.912;2023-04-03T00:25:53;9.85;;;6.18;;
48367;SDS011;34173;47.446;18.912;2023-04-03T00:28:20;9.75;;;6.35;;
48367;SDS011;34173;47.446;18.912;2023-04-03T00:30:49;8.80;;;5.87;;
48367;SDS011;34173;47.446;18.912;2023-04-03T00:33:17;8.75;;;5.53;;
48367;SDS011;34173;47.446;18.912;2023-04-03T00:35:45;10.32;;;5.95;;
48367;SDS011;34173;47.446;18.912;2023-04-03T00:38:13;8.50;;;5.70;;
48367;SDS011;34173;47.446;18.912;2023-04-03T00:40:44;8.82;;;5.87;;
48367;SDS011;34173;47.446;18.912;2023-04-03T00:43:15;8.23;;;5.50;;
48367;SDS011;34173;47.446;18.912;2023-04-03T00:45:45;8.85;;;5.30;;
48367;SDS011;34173;47.446;18.912;2023-04-03T00:48:19;8.18;;;5.70;;
48367;SDS011;34173;47.446;18.912;2023-04-03T00:50:48;9.25;;;5.35;;
48367;SDS011;34173;47.446;18.912;2023-04-03T00:53:27;9.35;;;5.87;;
48367;SDS011;34173;47.446;18.912;2023-04-03T00:56:05;8.40;;;5.50;;
48367;SDS011;34173;47.446;18.912;2023-04-03T00:58:40;8.45;;;5.32;;
48367;SDS011;34173;47.446;18.912;2023-04-03T01:01:12;7.37;;;5.10;;
48367;SDS011;34173;47.446;18.912;2023-04-03T01:03:42;7.43;;;5.00;;
48367;SDS011;34173;47.446;18.912;2023-04-03T01:06:10;7.62;;;5.10;;
48367;SDS011;34173;47.446;18.912;2023-04-03T01:08:38;7.57;;;4.87;;
48367;SDS011;34173;47.446;18.912;2023-04-03T01:11:06;8.38;;;5.28;;
48367;SDS011;34173;47.446;18.912;2023-04-03T01:13:33;7.90;;;5.00;;
48367;SDS011;34173;47.446;18.912;2023-04-03T01:16:03;7.57;;;4.70;;
48367;SDS011;34173;47.446;18.912;2023-04-03T01:18:33;7.37;;;4.40;;
48367;SDS011;34173;47.446;18.912;2023-04-03T01:23:44;7.10;;;4.60;;
48367;SDS011;34173;47.446;18.912;2023-04-03T01:26:20;7.47;;;4.80;;
48367;SDS011;34173;47.446;18.912;2023-04-03T01:28:48;7.87;;;5.00;;
48367;SDS011;34173;47.446;18.912;2023-04-03T01:33:47;7.32;;;4.65;;
48367;SDS011;34173;47.446;18.912;2023-04-03T01:36:33;6.90;;;4.65;;
48367;SDS011;34173;47.446;18.912;2023-04-03T01:39:01;6.50;;;4.25;;
48367;SDS011;34173;47.446;18.912;2023-04-03T01:41:29;6.70;;;4.25;;
48367;SDS011;34173;47.446;18.912;2023-04-03T01:43:59;6.80;;;4.25;;
48367;SDS011;34173;47.446;18.912;2023-04-03T01:46:26;6.68;;;4.55;;
48367;SDS011;34173;47.446;18.912;2023-04-03T01:48:54;6.85;;;4.05;;
48367;SDS011;34173;47.446;18.912;2023-04-03T01:51:22;6.03;;;4.03;;
48367;SDS011;34173;47.446;18.912;2023-04-03T01:53:50;6.12;;;3.97;;
48367;SDS011;34173;47.446;18.912;2023-04-03T01:56:18;6.25;;;3.90;;
48367;SDS011;34173;47.446;18.912;2023-04-03T01:58:47;6.35;;;4.05;;
48367;SDS011;34173;47.446;18.912;2023-04-03T02:01:16;6.62;;;4.30;;
48367;SDS011;34173;47.446;18.912;2023-04-03T02:03:44;6.97;;;4.20;;
48367;SDS011;34173;47.446;18.912;2023-04-03T02:06:11;5.78;;;3.67;;
48367;SDS011;34173;47.446;18.912;2023-04-03T02:08:39;6.85;;;4.15;;
48367;SDS011;34173;47.446;18.912;2023-04-03T02:11:07;6.90;;;4.20;;
48367;SDS011;34173;47.446;18.912;2023-04-03T02:13:35;6.45;;;3.80;;
48367;SDS011;34173;47.446;18.912;2023-04-03T02:16:06;7.22;;;4.10;;
48367;SDS011;34173;47.446;18.912;2023-04-03T02:18:35;7.35;;;4.12;;
48367;SDS011;34173;47.446;18.912;2023-04-03T02:21:03;6.45;;;3.95;;
48367;SDS011;34173;47.446;18.912;2023-04-03T02:23:31;6.60;;;3.90;;
48367;SDS011;34173;47.446;18.912;2023-04-03T02:26:09;6.47;;;4.07;;
48367;SDS011;34173;47.446;18.912;2023-04-03T02:28:38;8.23;;;4.63;;
48367;SDS011;34173;47.446;18.912;2023-04-03T02:31:07;6.78;;;4.20;;
48367;SDS011;34173;47.446;18.912;2023-04-03T02:33:37;6.87;;;4.25;;
48367;SDS011;34173;47.446;18.912;2023-04-03T02:36:07;7.90;;;4.65;;
48367;SDS011;34173;47.446;18.912;2023-04-03T02:38:36;7.80;;;4.20;;
48367;SDS011;34173;47.446;18.912;2023-04-03T02:41:05;6.95;;;4.18;;
48367;SDS011;34173;47.446;18.912;2023-04-03T02:43:35;7.25;;;4.82;;
48367;SDS011;34173;47.446;18.912;2023-04-03T02:46:03;7.25;;;4.85;;
48367;SDS011;34173;47.446;18.912;2023-04-03T02:48:31;7.32;;;4.90;;
48367;SDS011;34173;47.446;18.912;2023-04-03T02:51:00;7.20;;;4.25;;
48367;SDS011;34173;47.446;18.912;2023-04-03T02:53:28;7.57;;;5.05;;
48367;SDS011;34173;47.446;18.912;2023-04-03T02:55:56;8.43;;;5.57;;
48367;SDS011;34173;47.446;18.912;2023-04-03T02:58:24;7.23;;;4.93;;
48367;SDS011;34173;47.446;18.912;2023-04-03T03:00:52;8.43;;;5.10;;
48367;SDS011;34173;47.446;18.912;2023-04-03T03:03:20;7.93;;;4.90;;
48367;SDS011;34173;47.446;18.912;2023-04-03T03:05:48;8.10;;;5.60;;
48367;SDS011;34173;47.446;18.912;2023-04-03T03:08:16;7.97;;;5.25;;
48367;SDS011;34173;47.446;18.912;2023-04-03T03:10:47;7.75;;;5.20;;
48367;SDS011;34173;47.446;18.912;2023-04-03T03:13:14;8.73;;;5.30;;
48367;SDS011;34173;47.446;18.912;2023-04-03T03:15:42;8.88;;;5.80;;
48367;SDS011;34173;47.446;18.912;2023-04-03T03:18:10;9.48;;;5.75;;
48367;SDS011;34173;47.446;18.912;2023-04-03T03:20:37;8.80;;;5.68;;
48367;SDS011;34173;47.446;18.912;2023-04-03T03:23:05;8.35;;;5.40;;
48367;SDS011;34173;47.446;18.912;2023-04-03T03:25:32;8.23;;;5.90;;
48367;SDS011;34173;47.446;18.912;2023-04-03T03:28:01;7.87;;;5.80;;
48367;SDS011;34173;47.446;18.912;2023-04-03T03:30:28;8.30;;;5.60;;
48367;SDS011;34173;47.446;18.912;2023-04-03T03:32:56;9.43;;;6.25;;
48367;SDS011;34173;47.446;18.912;2023-04-03T03:35:23;8.57;;;5.85;;
48367;SDS011;34173;47.446;18.912;2023-04-03T03:37:51;8.25;;;5.37;;
48367;SDS011;34173;47.446;18.912;2023-04-03T03:40:19;9.60;;;5.50;;
48367;SDS011;34173;47.446;18.912;2023-04-03T03:42:46;8.13;;;5.13;;
48367;SDS011;34173;47.446;18.912;2023-04-03T03:45:14;9.50;;;5.47;;
48367;SDS011;34173;47.446;18.912;2023-04-03T03:47:42;8.02;;;5.20;;
48367;SDS011;34173;47.446;18.912;2023-04-03T03:50:10;7.90;;;4.90;;
48367;SDS011;34173;47.446;18.912;2023-04-03T03:52:38;7.85;;;5.40;;
48367;SDS011;34173;47.446;18.912;2023-04-03T03:55:06;8.27;;;5.57;;
48367;SDS011;34173;47.446;18.912;2023-04-03T03:57:34;9.70;;;5.55;;
48367;SDS011;34173;47.446;18.912;2023-04-03T04:00:02;8.45;;;5.72;;
48367;SDS011;34173;47.446;18.912;2023-04-03T04:02:41;7.55;;;5.53;;
48367;SDS011;34173;47.446;18.912;2023-04-03T04:05:11;9.70;;;5.45;;
48367;SDS011;34173;47.446;18.912;2023-04-03T04:07:39;8.13;;;5.18;;
48367;SDS011;34173;47.446;18.912;2023-04-03T04:10:06;8.20;;;5.43;;
48367;SDS011;34173;47.446;18.912;2023-04-03T04:12:35;8.05;;;5.35;;
48367;SDS011;34173;47.446;18.912;2023-04-03T04:15:03;10.13;;;5.70;;
48367;SDS011;34173;47.446;18.912;2023-04-03T04:17:31;9.18;;;5.82;;
48367;SDS011;34173;47.446;18.912;2023-04-03T04:19:59;9.07;;;5.85;;
48367;SDS011;34173;47.446;18.912;2023-04-03T04:22:28;8.25;;;5.82;;
48367;SDS011;34173;47.446;18.912;2023-04-03T04:24:55;7.53;;;4.87;;
48367;SDS011;34173;47.446;18.912;2023-04-03T04:27:23;9.57;;;5.73;;
48367;SDS011;34173;47.446;18.912;2023-04-03T04:29:51;8.73;;;5.37;;
48367;SDS011;34173;47.446;18.912;2023-04-03T04:32:20;8.68;;;5.40;;
48367;SDS011;34173;47.446;18.912;2023-04-03T04:34:48;9.15;;;5.40;;
48367;SDS011;34173;47.446;18.912;2023-04-03T04:37:16;8.25;;;5.45;;
48367;SDS011;34173;47.446;18.912;2023-04-03T04:39:46;9.50;;;5.62;;
48367;SDS011;34173;47.446;18.912;2023-04-03T04:42:14;9.33;;;5.80;;
48367;SDS011;34173;47.446;18.912;2023-04-03T04:44:44;9.70;;;5.60;;
48367;SDS011;34173;47.446;18.912;2023-04-03T04:47:13;10.27;;;5.85;;
48367;SDS011;34173;47.446;18.912;2023-04-03T04:49:41;9.05;;;5.32;;
48367;SDS011;34173;47.446;18.912;2023-04-03T04:52:09;9.43;;;5.25;;
48367;SDS011;34173;47.446;18.912;2023-04-03T04:54:38;8.65;;;5.43;;
48367;SDS011;34173;47.446;18.912;2023-04-03T04:57:06;8.60;;;5.25;;
48367;SDS011;34173;47.446;18.912;2023-04-03T04:59:34;8.68;;;5.20;;
48367;SDS011;34173;47.446;18.912;2023-04-03T05:02:02;8.32;;;5.50;;
48367;SDS011;34173;47.446;18.912;2023-04-03T05:04:31;9.13;;;4.72;;
48367;SDS011;34173;47.446;18.912;2023-04-03T05:06:59;8.30;;;5.00;;
48367;SDS011;34173;47.446;18.912;2023-04-03T05:09:27;8.75;;;5.20;;
48367;SDS011;34173;47.446;18.912;2023-04-03T05:11:55;8.20;;;5.35;;
48367;SDS011;34173;47.446;18.912;2023-04-03T05:14:23;8.60;;;5.30;;
48367;SDS011;34173;47.446;18.912;2023-04-03T05:16:52;8.50;;;4.65;;
48367;SDS011;34173;47.446;18.912;2023-04-03T05:19:22;7.68;;;5.12;;
48367;SDS011;34173;47.446;18.912;2023-04-03T05:21:50;8.73;;;4.80;;
48367;SDS011;34173;47.446;18.912;2023-04-03T05:24:18;7.70;;;4.72;;
48367;SDS011;34173;47.446;18.912;2023-04-03T05:26:46;7.87;;;4.72;;
48367;SDS011;34173;47.446;18.912;2023-04-03T05:29:14;8.20;;;4.65;;
48367;SDS011;34173;47.446;18.912;2023-04-03T05:31:42;7.82;;;4.32;;
48367;SDS011;34173;47.446;18.912;2023-04-03T05:34:10;8.60;;;5.07;;
48367;SDS011;34173;47.446;18.912;2023-04-03T05:36:38;7.93;;;4.50;;
48367;SDS011;34173;47.446;18.912;2023-04-03T05:39:07;8.88;;;5.20;;
48367;SDS011;34173;47.446;18.912;2023-04-03T05:41:36;8.82;;;4.70;;
48367;SDS011;34173;47.446;18.912;2023-04-03T05:44:03;7.87;;;4.85;;
48367;SDS011;34173;47.446;18.912;2023-04-03T05:46:32;7.37;;;4.43;;
48367;SDS011;34173;47.446;18.912;2023-04-03T05:49:01;7.62;;;4.37;;
48367;SDS011;34173;47.446;18.912;2023-04-03T05:51:38;6.95;;;4.22;;
48367;SDS011;34173;47.446;18.912;2023-04-03T05:54:13;8.17;;;4.97;;
48367;SDS011;34173;47.446;18.912;2023-04-03T05:56:41;9.38;;;5.30;;
48367;SDS011;34173;47.446;18.912;2023-04-03T05:59:09;6.57;;;4.68;;
48367;SDS011;34173;47.446;18.912;2023-04-03T06:01:37;8.32;;;4.82;;
48367;SDS011;34173;47.446;18.912;2023-04-03T06:04:05;7.28;;;4.78;;
48367;SDS011;34173;47.446;18.912;2023-04-03T06:06:51;8.52;;;4.75;;
48367;SDS011;34173;47.446;18.912;2023-04-03T06:09:21;8.40;;;4.68;;
48367;SDS011;34173;47.446;18.912;2023-04-03T06:11:52;8.70;;;5.53;;
48367;SDS011;34173;47.446;18.912;2023-04-03T06:14:21;7.53;;;4.60;;
48367;SDS011;34173;47.446;18.912;2023-04-03T06:16:48;7.70;;;5.43;;
48367;SDS011;34173;47.446;18.912;2023-04-03T06:19:16;9.48;;;6.57;;
48367;SDS011;34173;47.446;18.912;2023-04-03T06:21:45;8.18;;;4.78;;
48367;SDS011;34173;47.446;18.912;2023-04-03T06:24:15;8.07;;;4.60;;
48367;SDS011;34173;47.446;18.912;2023-04-03T06:26:43;8.13;;;4.90;;
48367;SDS011;34173;47.446;18.912;2023-04-03T06:29:11;7.37;;;4.28;;
48367;SDS011;34173;47.446;18.912;2023-04-03T06:31:38;7.20;;;4.62;;
48367;SDS011;34173;47.446;18.912;2023-04-03T06:34:06;6.65;;;4.10;;
48367;SDS011;34173;47.446;18.912;2023-04-03T06:36:36;7.07;;;4.30;;
48367;SDS011;34173;47.446;18.912;2023-04-03T06:39:03;7.50;;;4.07;;
48367;SDS011;34173;47.446;18.912;2023-04-03T06:41:31;6.68;;;4.03;;
48367;SDS011;34173;47.446;18.912;2023-04-03T06:43:59;5.97;;;3.67;;
48367;SDS011;34173;47.446;18.912;2023-04-03T06:46:26;6.90;;;3.67;;
48367;SDS011;34173;47.446;18.912;2023-04-03T06:48:54;6.55;;;4.10;;
48367;SDS011;34173;47.446;18.912;2023-04-03T06:51:23;7.03;;;3.40;;
48367;SDS011;34173;47.446;18.912;2023-04-03T06:53:53;7.45;;;4.20;;
48367;SDS011;34173;47.446;18.912;2023-04-03T06:56:22;7.78;;;4.03;;
48367;SDS011;34173;47.446;18.912;2023-04-03T06:58:49;7.53;;;3.90;;
48367;SDS011;34173;47.446;18.912;2023-04-03T07:01:18;6.90;;;4.20;;
48367;SDS011;34173;47.446;18.912;2023-04-03T07:03:47;7.00;;;3.30;;
48367;SDS011;34173;47.446;18.912;2023-04-03T07:06:15;6.60;;;3.75;;
48367;SDS011;34173;47.446;18.912;2023-04-03T07:08:43;6.60;;;3.72;;
48367;SDS011;34173;47.446;18.912;2023-04-03T07:11:12;6.53;;;3.83;;
48367;SDS011;34173;47.446;18.912;2023-04-03T07:13:40;6.30;;;3.80;;
48367;SDS011;34173;47.446;18.912;2023-04-03T07:16:08;6.10;;;3.67;;
48367;SDS011;34173;47.446;18.912;2023-04-03T07:18:36;8.33;;;3.60;;
48367;SDS011;34173;47.446;18.912;2023-04-03T07:21:04;5.03;;;3.08;;
48367;SDS011;34173;47.446;18.912;2023-04-03T07:23:32;6.00;;;3.10;;
48367;SDS011;34173;47.446;18.912;2023-04-03T07:26:00;6.25;;;2.95;;
48367;SDS011;34173;47.446;18.912;2023-04-03T07:28:28;5.30;;;2.80;;
48367;SDS011;34173;47.446;18.912;2023-04-03T07:31:00;5.40;;;2.90;;
48367;SDS011;34173;47.446;18.912;2023-04-03T07:33:30;4.60;;;2.67;;
48367;SDS011;34173;47.446;18.912;2023-04-03T07:35:58;5.15;;;2.92;;
48367;SDS011;34173;47.446;18.912;2023-04-03T07:38:27;5.40;;;2.70;;
48367;SDS011;34173;47.446;18.912;2023-04-03T07:40:55;4.80;;;2.60;;
48367;SDS011;34173;47.446;18.912;2023-04-03T07:43:22;4.37;;;2.50;;
48367;SDS011;34173;47.446;18.912;2023-04-03T07:45:51;4.18;;;2.50;;
48367;SDS011;34173;47.446;18.912;2023-04-03T07:48:22;4.85;;;2.35;;
48367;SDS011;34173;47.446;18.912;2023-04-03T07:50:53;4.37;;;2.08;;
48367;SDS011;34173;47.446;18.912;2023-04-03T07:53:21;4.03;;;2.00;;
48367;SDS011;34173;47.446;18.912;2023-04-03T07:55:48;5.70;;;2.47;;
48367;SDS011;34173;47.446;18.912;2023-04-03T07:58:18;4.00;;;2.05;;
48367;SDS011;34173;47.446;18.912;2023-04-03T08:00:46;3.97;;;2.10;;
48367;SDS011;34173;47.446;18.912;2023-04-03T08:03:15;4.22;;;2.15;;
48367;SDS011;34173;47.446;18.912;2023-04-03T08:05:46;4.75;;;2.22;;
48367;SDS011;34173;47.446;18.912;2023-04-03T08:08:16;4.25;;;2.10;;
48367;SDS011;34173;47.446;18.912;2023-04-03T08:10:49;4.00;;;2.00;;
48367;SDS011;34173;47.446;18.912;2023-04-03T08:13:21;3.97;;;2.03;;
48367;SDS011;34173;47.446;18.912;2023-04-03T08:15:49;3.78;;;1.90;;
48367;SDS011;34173;47.446;18.912;2023-04-03T08:18:17;4.70;;;2.20;;
48367;SDS011;34173;47.446;18.912;2023-04-03T08:20:45;4.03;;;2.25;;
48367;SDS011;34173;47.446;18.912;2023-04-03T08:23:13;4.30;;;2.10;;
48367;SDS011;34173;47.446;18.912;2023-04-03T08:25:44;4.10;;;2.10;;
48367;SDS011;34173;47.446;18.912;2023-04-03T08:28:12;4.35;;;1.80;;
48367;SDS011;34173;47.446;18.912;2023-04-03T08:30:40;4.75;;;1.75;;
48367;SDS011;34173;47.446;18.912;2023-04-03T08:33:09;3.95;;;1.90;;
48367;SDS011;34173;47.446;18.912;2023-04-03T08:35:38;3.90;;;2.00;;
48367;SDS011;34173;47.446;18.912;2023-04-03T08:38:08;3.72;;;2.08;;
48367;SDS011;34173;47.446;18.912;2023-04-03T08:40:36;3.85;;;1.52;;
48367;SDS011;34173;47.446;18.912;2023-04-03T08:50:50;3.53;;;1.27;;
48367;SDS011;34173;47.446;18.912;2023-04-03T08:53:20;4.12;;;1.50;;
